Time;durP1;ratioP1;P1;durP2;ratioP2;P2;SDS_P1;SDS_P2;PMS_P1;PMS_P2;Temp;Humidity;BMP_temperature;BMP_pressure;BME280_temperature;BME280_humidity;BME280_pressure;Samples;Min_cycle;Max_cycle;Signal;HPM_P1;HPM_P2
2021/09/27 00:02:22;;;;;;;1.97;0.70;;;13.10;34.70;;;;;;4874045;28;20240;-76
2021/09/27 00:04:45;;;;;;;1.63;0.60;;;;;;;;;;4876699;28;20178;-77
2021/09/27 00:07:07;;;;;;;2.00;0.70;;;;;;;;;;4877023;28;20182;-74
2021/09/27 00:09:33;;;;;;;2.83;0.97;;;;;;;;;;4876921;28;20185;-75
2021/09/27 00:11:57;;;;;;;4.07;1.27;;;12.60;33.60;;;;;;4876905;28;20724;-75
2021/09/27 00:14:19;;;;;;;2.07;0.80;;;12.50;33.50;;;;;;4876988;28;20271;-76
2021/09/27 00:16:42;;;;;;;2.03;0.70;;;;;;;;;;4875563;28;20255;-76
2021/09/27 00:19:05;;;;;;;2.40;0.90;;;;;;;;;;4876748;28;20206;-76
2021/09/27 00:21:31;;;;;;;1.67;0.67;;;12.40;34.30;;;;;;4875331;28;20199;-76
2021/09/27 00:23:54;;;;;;;4.87;1.60;;;12.40;34.10;;;;;;4876489;28;20199;-74
2021/09/27 00:26:19;;;;;;;2.13;0.80;;;12.30;34.00;;;;;;4876158;28;20235;-76
2021/09/27 00:28:43;;;;;;;2.20;0.53;;;12.40;33.90;;;;;;4876737;28;20197;-77
2021/09/27 00:31:08;;;;;;;1.70;0.40;;;12.30;34.20;;;;;;4876430;28;20244;-76
2021/09/27 00:33:30;;;;;;;4.57;1.00;;;;;;;;;;4875857;28;20193;-77
2021/09/27 00:35:54;;;;;;;7.50;1.70;;;12.10;34.70;;;;;;4875500;28;20273;-75
2021/09/27 00:38:18;;;;;;;4.80;1.13;;;12.30;33.50;;;;;;4876883;28;20189;-76
2021/09/27 00:40:44;;;;;;;3.53;0.97;;;12.10;34.50;;;;;;4876248;28;20193;-76
2021/09/27 00:43:07;;;;;;;2.63;0.73;;;11.90;33.10;;;;;;4876878;28;20197;-76
2021/09/27 00:45:38;;;;;;;3.57;0.97;;;12.10;34.00;;;;;;4876365;28;20193;-76
2021/09/27 00:48:01;;;;;;;6.30;1.60;;;;;;;;;;4876216;28;20173;-76
2021/09/27 00:50:29;;;;;;;2.40;0.70;;;12.10;33.80;;;;;;4875739;28;20235;-75
2021/09/27 00:52:54;;;;;;;4.70;1.30;;;11.80;35.20;;;;;;4876353;28;20177;-77
2021/09/27 00:55:21;;;;;;;2.90;0.90;;;11.80;35.20;;;;;;4876102;28;20744;-76
2021/09/27 00:57:44;;;;;;;2.60;0.90;;;;;;;;;;4876296;28;20185;-76
2021/09/27 01:00:10;;;;;;;0.83;0.40;;;11.80;34.70;;;;;;4876005;28;20206;-75
2021/09/27 01:02:35;;;;;;;2.40;0.80;;;11.80;34.50;;;;;;4873598;28;20290;-75
2021/09/27 01:04:57;;;;;;;5.03;1.50;;;12.10;34.00;;;;;;4876072;28;20197;-77
2021/09/27 01:07:28;;;;;;;2.10;0.80;;;11.90;34.20;;;;;;4875686;28;20189;-75
2021/09/27 01:10:21;;;;;;;4.57;1.37;;;11.00;32.70;;;;;;4876015;28;20193;-75
2021/09/27 01:13:04;;;;;;;1.70;0.70;;;11.80;33.40;;;;;;4876320;28;20235;-77
2021/09/27 01:15:33;;;;;;;1.63;0.57;;;11.90;32.90;;;;;;4875988;28;20221;-77
2021/09/27 01:18:08;;;;;;;4.07;1.40;;;12.20;32.50;;;;;;4875846;28;20185;-78
2021/09/27 01:21:03;;;;;;;1.90;0.70;;;12.30;32.40;;;;;;4877440;28;20173;-79
2021/09/27 01:23:56;;;;;;;1.27;0.60;;;12.20;33.00;;;;;;4882415;28;20197;-76
2021/09/27 01:26:36;;;;;;;2.00;0.80;;;11.60;31.80;;;;;;4875899;28;20639;-75
2021/09/27 01:29:41;;;;;;;4.23;1.37;;;12.30;32.00;;;;;;4876417;28;20235;-80
2021/09/27 01:32:30;;;;;;;4.00;1.43;;;12.50;32.70;;;;;;4873873;28;20690;-79
2021/09/27 01:35:02;;;;;;;4.80;1.53;;;12.70;31.90;;;;;;4874584;28;20246;-79
2021/09/27 01:37:32;;;;;;;1.57;0.70;;;12.60;32.60;;;;;;4875584;28;20201;-80
2021/09/27 01:40:01;;;;;;;4.20;1.47;;;12.40;31.70;;;;;;4879032;28;20185;-79
2021/09/27 01:42:33;;;;;;;1.17;0.60;;;12.80;32.60;;;;;;4878826;28;20189;-75
2021/09/27 01:45:02;;;;;;;4.77;1.63;;;12.90;32.70;;;;;;4877581;28;20251;-75
2021/09/27 01:47:29;;;;;;;0.90;0.40;;;12.90;32.70;;;;;;4860414;28;20209;-75
2021/09/27 01:50:02;;;;;;;4.03;1.33;;;13.00;32.80;;;;;;4866527;28;20185;-75
2021/09/27 01:52:33;;;;;;;1.80;0.80;;;12.30;31.80;;;;;;4879884;28;20573;-75
2021/09/27 01:55:03;;;;;;;4.10;1.47;;;13.10;32.90;;;;;;4878931;28;20615;-75
2021/09/27 01:57:34;;;;;;;0.77;0.50;;;13.20;33.00;;;;;;4879089;28;20612;-74
2021/09/27 02:00:02;;;;;;;3.23;1.33;;;13.20;33.10;;;;;;4878671;28;20592;-75
2021/09/27 02:02:32;;;;;;;1.17;0.53;;;13.50;32.40;;;;;;4876890;28;20629;-77
2021/09/27 02:05:04;;;;;;;3.70;1.37;;;13.70;33.00;;;;;;4879075;28;20239;-76
2021/09/27 02:07:30;;;;;;;0.70;0.40;;;13.70;33.00;;;;;;4879435;28;20247;-76
2021/09/27 02:09:59;;;;;;;3.33;1.27;;;13.80;33.00;;;;;;4877514;28;20613;-77
2021/09/27 02:12:28;;;;;;;1.97;0.80;;;13.90;33.00;;;;;;4879288;28;20650;-76
2021/09/27 02:14:58;;;;;;;2.47;0.93;;;14.00;33.10;;;;;;4878770;28;20214;-75
2021/09/27 02:17:27;;;;;;;1.53;0.63;;;14.10;33.40;;;;;;4879460;28;20173;-75
2021/09/27 02:19:57;;;;;;;2.23;0.80;;;14.20;33.70;;;;;;4879019;28;20600;-76
2021/09/27 02:22:25;;;;;;;2.07;0.90;;;14.30;34.20;;;;;;4879042;28;20192;-76
2021/09/27 02:24:55;;;;;;;1.30;0.50;;;14.40;34.70;;;;;;4878790;28;20193;-75
2021/09/27 02:27:18;;;;;;;1.70;0.80;;;;;;;;;;4879028;28;20280;-75
2021/09/27 02:29:41;;;;;;;1.73;0.80;;;14.50;36.20;;;;;;4878845;28;20205;-75
2021/09/27 02:32:10;;;;;;;2.97;1.33;;;14.50;37.10;;;;;;4878121;28;20189;-75
2021/09/27 02:34:39;;;;;;;2.23;0.90;;;14.60;37.90;;;;;;4878675;28;20181;-76
2021/09/27 02:37:10;;;;;;;2.47;1.17;;;14.60;38.70;;;;;;4878665;28;20205;-74
2021/09/27 02:39:38;;;;;;;1.77;0.90;;;14.60;39.30;;;;;;4878530;28;20208;-75
2021/09/27 02:42:07;;;;;;;2.83;1.13;;;14.70;39.70;;;;;;4878610;28;20223;-75
2021/09/27 02:44:30;;;;;;;1.47;0.63;;;14.80;39.40;;;;;;4878347;28;20258;-75
2021/09/27 02:46:56;;;;;;;2.90;1.17;;;;;;;;;;4878548;28;20181;-77
2021/09/27 02:49:19;;;;;;;1.67;0.80;;;14.60;41.30;;;;;;4877977;28;20183;-76
2021/09/27 02:51:44;;;;;;;1.50;0.70;;;14.80;42.00;;;;;;4878477;28;20231;-75
2021/09/27 02:54:12;;;;;;;1.63;0.70;;;15.50;41.70;;;;;;4878793;28;20197;-75
2021/09/27 02:56:55;;;;;;;1.03;0.60;;;14.80;42.50;;;;;;4875774;28;20221;-74
2021/09/27 02:59:25;;;;;;;1.77;0.83;;;14.80;42.80;;;;;;4878121;28;20286;-79
2021/09/27 03:01:57;;;;;;;0.57;0.40;;;14.80;43.00;;;;;;4868370;28;20222;-75
2021/09/27 03:04:30;;;;;;;2.20;0.97;;;14.80;43.00;;;;;;4861155;28;20190;-76
2021/09/27 03:07:05;;;;;;;1.50;0.80;;;14.90;43.60;;;;;;4878453;28;20193;-76
2021/09/27 03:09:37;;;;;;;2.10;1.10;;;14.90;43.80;;;;;;4877712;28;20173;-75
2021/09/27 03:12:12;;;;;;;2.00;0.93;;;14.90;44.00;;;;;;4877958;28;20190;-75
2021/09/27 03:15:08;;;;;;;1.30;0.67;;;15.30;43.50;;;;;;4878347;28;20200;-75
2021/09/27 03:17:37;;;;;;;0.90;0.60;;;14.90;44.10;;;;;;4878589;28;20221;-74
2021/09/27 03:20:16;;;;;;;2.03;0.87;;;15.00;44.20;;;;;;4877466;28;20209;-77
2021/09/27 03:22:52;;;;;;;1.17;0.70;;;14.90;44.10;;;;;;4877905;28;20205;-76
2021/09/27 03:25:27;;;;;;;1.60;0.80;;;15.00;44.20;;;;;;4878037;28;20189;-75
2021/09/27 03:28:02;;;;;;;1.37;0.60;;;15.00;44.30;;;;;;4877672;28;20219;-75
2021/09/27 03:30:32;;;;;;;1.50;0.73;;;15.00;44.40;;;;;;4877932;28;20223;-75
2021/09/27 03:33:02;;;;;;;2.17;1.00;;;15.20;43.90;;;;;;4875971;28;20190;-76
2021/09/27 03:35:36;;;;;;;0.83;0.50;;;15.00;44.70;;;;;;4876320;28;20178;-75
2021/09/27 03:38:05;;;;;;;2.70;1.30;;;15.10;45.00;;;;;;4876073;28;20211;-77
2021/09/27 03:40:43;;;;;;;1.57;0.73;;;15.20;44.40;;;;;;4875829;28;20637;-75
2021/09/27 03:43:19;;;;;;;1.60;0.80;;;15.10;45.00;;;;;;4877743;28;20243;-74
2021/09/27 03:45:52;;;;;;;3.23;1.07;;;15.10;45.00;;;;;;4877537;28;20223;-75
2021/09/27 03:48:19;;;;;;;0.97;0.50;;;15.10;45.10;;;;;;4877677;28;20228;-76
2021/09/27 03:50:47;;;;;;;1.53;0.77;;;15.10;45.20;;;;;;4877228;28;20255;-76
2021/09/27 03:53:12;;;;;;;2.67;1.17;;;15.10;45.30;;;;;;4876756;28;20201;-75
2021/09/27 03:55:44;;;;;;;1.50;0.80;;;15.20;44.70;;;;;;4877335;28;20358;-76
2021/09/27 03:58:12;;;;;;;2.23;1.13;;;15.10;45.40;;;;;;4877582;28;20190;-78
2021/09/27 04:00:39;;;;;;;16.10;6.17;;;15.10;45.50;;;;;;4874480;28;20244;-75
2021/09/27 04:03:11;;;;;;;2.97;1.37;;;15.00;45.00;;;;;;4875580;28;20233;-74
2021/09/27 04:05:48;;;;;;;1.80;0.93;;;15.20;45.80;;;;;;4877091;28;20173;-76
2021/09/27 04:08:17;;;;;;;0.57;0.30;;;15.20;46.00;;;;;;4876999;28;20706;-75
2021/09/27 04:10:55;;;;;;;2.40;1.00;;;15.20;46.10;;;;;;4876701;28;20243;-75
2021/09/27 04:13:27;;;;;;;1.63;0.73;;;15.10;46.00;;;;;;4876660;28;20201;-74
2021/09/27 04:16:14;;;;;;;1.60;0.80;;;15.10;46.10;;;;;;4877104;28;20658;-75
2021/09/27 04:18:50;;;;;;;1.83;0.83;;;15.10;46.10;;;;;;4876413;28;20231;-76
2021/09/27 04:21:19;;;;;;;0.73;0.40;;;15.20;45.80;;;;;;4876597;28;20242;-73
2021/09/27 04:23:55;;;;;;;1.03;0.63;;;15.10;45.90;;;;;;4877232;28;20201;-74
2021/09/27 04:26:29;;;;;;;1.87;0.97;;;14.60;45.20;;;;;;4875482;28;20729;-75
2021/09/27 04:29:17;;;;;;;0.83;0.53;;;15.10;46.00;;;;;;4876483;28;20650;-75
2021/09/27 04:31:47;;;;;;;2.13;0.97;;;15.00;46.00;;;;;;4876486;28;20177;-76
2021/09/27 04:34:25;;;;;;;1.43;0.70;;;15.50;45.40;;;;;;4876308;28;21013;-78
2021/09/27 04:36:51;;;;;;;1.07;0.50;;;15.00;45.90;;;;;;4876378;28;20732;-79
2021/09/27 04:39:18;;;;;;;1.27;0.77;;;15.00;45.80;;;;;;4875207;28;20521;-74
2021/09/27 04:42:05;;;;;;;1.30;0.77;;;15.00;45.80;;;;;;4876384;28;20655;-76
2021/09/27 04:44:58;;;;;;;1.13;0.60;;;15.00;45.80;;;;;;4845756;28;20525;-75
2021/09/27 04:47:31;;;;;;;0.93;0.50;;;15.00;45.80;;;;;;4876242;28;20239;-76
2021/09/27 04:50:11;;;;;;;1.93;0.90;;;15.10;45.90;;;;;;4876330;28;20200;-75
2021/09/27 04:52:44;;;;;;;1.47;0.73;;;15.20;45.50;;;;;;4876537;28;20189;-74
2021/09/27 04:55:34;;;;;;;2.07;1.00;;;14.70;45.70;;;;;;4876476;28;20235;-74
2021/09/27 04:58:20;;;;;;;3.20;1.43;;;15.10;46.00;;;;;;4875929;28;20224;-76
2021/09/27 05:00:59;;;;;;;14.47;6.13;;;15.10;46.00;;;;;;4874220;28;20188;-75
2021/09/27 05:03:36;;;;;;;1.80;0.87;;;15.10;46.10;;;;;;4875277;28;20209;-75
2021/09/27 05:06:36;;;;;;;2.93;1.27;;;15.50;45.70;;;;;;4874974;28;20201;-75
2021/09/27 05:09:05;;;;;;;3.03;1.30;;;15.60;45.70;;;;;;4850137;28;20208;-75
2021/09/27 05:11:55;;;;;;;2.60;0.87;;;15.20;45.60;;;;;;4876215;28;20283;-75
2021/09/27 05:14:35;;;;;;;1.47;0.60;;;15.30;45.80;;;;;;4872205;28;20239;-74
2021/09/27 05:17:10;;;;;;;1.83;0.87;;;15.20;46.40;;;;;;4875121;28;20251;-76
2021/09/27 05:20:08;;;;;;;0.73;0.40;;;15.20;46.40;;;;;;4857018;28;20185;-74
2021/09/27 05:22:52;;;;;;;1.37;0.80;;;15.30;45.90;;;;;;4862464;28;20204;-76
2021/09/27 05:25:47;;;;;;;1.43;0.67;;;15.40;45.90;;;;;;4876413;28;20173;-75
2021/09/27 05:28:37;;;;;;;1.93;1.13;;;15.00;45.70;;;;;;4857111;28;20240;-74
2021/09/27 05:31:16;;;;;;;1.87;1.07;;;15.00;45.70;;;;;;4872748;28;20231;-75
2021/09/27 05:33:51;;;;;;;1.27;0.70;;;15.30;46.50;;;;;;4873897;28;20211;-75
2021/09/27 05:36:26;;;;;;;0.97;0.50;;;15.20;46.50;;;;;;4874886;28;20704;-76
2021/09/27 05:39:02;;;;;;;1.00;0.60;;;15.20;46.50;;;;;;4875453;28;20242;-76
2021/09/27 05:41:37;;;;;;;2.17;1.03;;;15.20;46.50;;;;;;4875614;28;20226;-78
2021/09/27 05:44:14;;;;;;;2.40;1.13;;;15.30;46.60;;;;;;4873997;28;20204;-75
2021/09/27 05:46:53;;;;;;;1.00;0.60;;;15.70;46.10;;;;;;4876127;28;20223;-76
2021/09/27 05:49:25;;;;;;;0.93;0.47;;;15.20;46.00;;;;;;4874159;28;20201;-75
2021/09/27 05:51:58;;;;;;;1.50;0.70;;;15.40;46.60;;;;;;4873933;28;20206;-75
2021/09/27 05:54:27;;;;;;;1.03;0.73;;;15.40;46.80;;;;;;4874282;28;20618;-76
2021/09/27 05:56:59;;;;;;;1.07;0.60;;;15.40;46.90;;;;;;4874989;28;20201;-73
2021/09/27 05:59:28;;;;;;;1.23;0.67;;;15.30;46.80;;;;;;4875656;28;20205;-75
2021/09/27 06:01:59;;;;;;;1.13;0.60;;;15.30;46.80;;;;;;4864147;28;20225;-74
2021/09/27 06:04:28;;;;;;;0.83;0.50;;;15.40;46.90;;;;;;4856907;28;20189;-76
2021/09/27 06:07:00;;;;;;;1.50;0.87;;;15.40;46.80;;;;;;4857718;28;20194;-75
2021/09/27 06:09:37;;;;;;;5.13;2.40;;;15.40;46.90;;;;;;4853093;28;20198;-79
2021/09/27 06:12:06;;;;;;;2.90;1.27;;;15.00;46.20;;;;;;4869808;28;20205;-75
2021/09/27 06:14:30;;;;;;;2.57;1.20;;;15.50;47.00;;;;;;4874153;28;20247;-75
2021/09/27 06:17:02;;;;;;;1.47;0.80;;;15.50;47.10;;;;;;4874408;28;20212;-81
2021/09/27 06:19:37;;;;;;;5.30;2.53;;;15.30;46.60;;;;;;4872787;28;20630;-81
2021/09/27 06:22:24;;;;;;;2.27;1.13;;;15.40;46.70;;;;;;4874874;28;20189;-75
2021/09/27 06:24:56;;;;;;;1.53;0.80;;;15.70;47.50;;;;;;4883359;28;20203;-75
2021/09/27 06:27:34;;;;;;;0.80;0.63;;;16.00;47.30;;;;;;4898132;28;20565;-77
2021/09/27 06:30:05;;;;;;;0.50;0.47;;;15.40;47.10;;;;;;4896557;28;20184;-76
2021/09/27 06:32:35;;;;;;;0.73;0.50;;;15.90;47.90;;;;;;4898503;28;20181;-80
2021/09/27 06:35:03;;;;;;;1.53;0.90;;;15.90;48.00;;;;;;4897868;28;20630;-76
2021/09/27 06:37:29;;;;;;;1.40;0.80;;;15.80;47.90;;;;;;4897687;28;20567;-77
2021/09/27 06:39:52;;;;;;;1.50;0.93;;;16.20;47.60;;;;;;4897096;28;20189;-77
2021/09/27 06:42:15;;;;;;;1.63;0.80;;;15.80;47.60;;;;;;4896593;28;20216;-77
2021/09/27 06:44:38;;;;;;;0.73;0.57;;;16.60;47.90;;;;;;4896540;28;20573;-80
2021/09/27 06:47:01;;;;;;;2.03;1.17;;;;;;;;;;4897429;28;20200;-75
2021/09/27 06:49:23;;;;;;;4.23;2.33;;;;;;;;;;4896719;28;20180;-76
2021/09/27 06:51:48;;;;;;;1.33;0.73;;;16.20;48.40;;;;;;4896432;28;20518;-75
2021/09/27 06:54:10;;;;;;;1.53;0.90;;;15.80;47.90;;;;;;4897167;28;20200;-76
2021/09/27 06:56:33;;;;;;;0.97;0.67;;;;;;;;;;4897746;28;20226;-75
2021/09/27 06:58:56;;;;;;;0.90;0.57;;;;;;;;;;4897211;28;20776;-78
2021/09/27 07:01:18;;;;;;;1.23;0.63;;;15.90;48.10;;;;;;4878646;28;20255;-75
2021/09/27 07:03:41;;;;;;;1.27;0.67;;;;;;;;;;4875926;28;20190;-75
2021/09/27 07:06:04;;;;;;;2.37;1.27;;;;;;;;;;4877768;28;20235;-75
2021/09/27 07:08:28;;;;;;;1.33;0.73;;;16.60;48.10;;;;;;4877875;28;20712;-75
2021/09/27 07:10:53;;;;;;;1.27;0.80;;;16.40;48.60;;;;;;4877365;28;20251;-76
2021/09/27 07:13:16;;;;;;;0.63;0.50;;;;;;;;;;4876847;28;20711;-78
2021/09/27 07:15:38;;;;;;;1.07;0.60;;;17.00;48.40;;;;;;4877949;28;20189;-76
2021/09/27 07:18:01;;;;;;;2.20;1.13;;;;;;;;;;4877530;28;20574;-81
2021/09/27 07:20:26;;;;;;;1.17;0.70;;;16.50;48.90;;;;;;4876457;28;20266;-75
2021/09/27 07:22:49;;;;;;;1.27;0.60;;;;;;;;;;4878105;28;20224;-78
2021/09/27 07:25:15;;;;;;;2.90;1.43;;;16.60;48.30;;;;;;4876438;28;20243;-77
2021/09/27 07:27:38;;;;;;;0.97;0.53;;;;;;;;;;4877755;28;20651;-76
2021/09/27 07:30:01;;;;;;;2.10;1.07;;;;;;;;;;4876450;28;20606;-77
2021/09/27 07:32:23;;;;;;;1.83;0.90;;;;;;;;;;4877906;28;20190;-77
2021/09/27 07:34:46;;;;;;;2.07;1.07;;;;;;;;;;4875943;28;20784;-81
2021/09/27 07:37:09;;;;;;;1.90;0.90;;;;;;;;;;4876799;28;20712;-81
2021/09/27 07:39:33;;;;;;;2.10;1.03;;;17.10;49.30;;;;;;4876590;28;20217;-83
2021/09/27 07:41:57;;;;;;;1.07;0.60;;;17.10;49.40;;;;;;4876526;28;20661;-77
2021/09/27 07:44:19;;;;;;;1.37;0.63;;;;;;;;;;4877155;28;20208;-77
2021/09/27 07:46:42;;;;;;;2.13;1.00;;;;;;;;;;4876352;28;20197;-77
2021/09/27 07:49:05;;;;;;;2.97;1.43;;;;;;;;;;4876947;28;20197;-82
2021/09/27 07:51:28;;;;;;;1.07;0.60;;;17.30;49.50;;;;;;4877052;28;20193;-78
2021/09/27 07:53:51;;;;;;;1.20;0.60;;;;;;;;;;4876983;28;20251;-77
2021/09/27 07:56:13;;;;;;;2.77;1.33;;;17.80;49.60;;;;;;4876143;28;20251;-79
2021/09/27 07:58:37;;;;;;;0.60;0.40;;;17.40;49.70;;;;;;4877187;28;20274;-81
2021/09/27 08:01:00;;;;;;;2.70;1.27;;;;;;;;;;4886436;28;20227;-83
2021/09/27 08:03:23;;;;;;;1.00;0.70;;;17.20;49.10;;;;;;4877290;28;20850;-83
2021/09/27 08:05:56;;;;;;;1.17;0.60;;;17.50;49.70;;;;;;4876835;28;20724;-81
2021/09/27 08:08:19;;;;;;;0.83;0.43;;;;;;;;;;4876277;28;20720;-75
2021/09/27 08:10:42;;;;;;;0.97;0.57;;;17.60;49.80;;;;;;4875820;28;20243;-75
2021/09/27 08:13:06;;;;;;;3.13;1.43;;;17.60;49.80;;;;;;4877181;28;20303;-75
2021/09/27 08:15:32;;;;;;;0.97;0.60;;;17.70;49.30;;;;;;4877000;28;20189;-75
2021/09/27 08:17:56;;;;;;;0.93;0.53;;;17.70;49.90;;;;;;4876289;28;20651;-77
2021/09/27 08:20:21;;;;;;;1.63;0.80;;;17.80;50.00;;;;;;4877188;28;20559;-76
2021/09/27 08:22:45;;;;;;;1.03;0.50;;;17.90;50.10;;;;;;4877866;28;20205;-76
2021/09/27 08:25:13;;;;;;;2.83;1.27;;;18.00;50.10;;;;;;4877426;28;20193;-76
2021/09/27 08:27:36;;;;;;;1.60;0.77;;;;;;;;;;4877477;28;20236;-75
2021/09/27 08:29:59;;;;;;;1.97;0.80;;;;;;;;;;4875851;28;20234;-76
2021/09/27 08:32:26;;;;;;;1.53;0.77;;;18.10;50.20;;;;;;4875675;28;20197;-76
2021/09/27 08:34:52;;;;;;;1.83;0.73;;;;;;;;;;4876730;28;20635;-77
2021/09/27 08:37:14;;;;;;;1.87;0.97;;;;;;;;;;4877116;28;20193;-75
2021/09/27 08:39:37;;;;;;;1.43;0.70;;;;;;;;;;4856860;28;20222;-76
2021/09/27 08:42:09;;;;;;;3.57;1.60;;;18.00;50.10;;;;;;4876206;28;20271;-75
2021/09/27 08:44:48;;;;;;;1.47;0.70;;;17.60;49.50;;;;;;4876427;28;20203;-75
2021/09/27 08:47:21;;;;;;;2.90;1.33;;;18.20;50.20;;;;;;4873911;28;20247;-76
2021/09/27 08:49:50;;;;;;;2.73;1.30;;;18.30;50.30;;;;;;4874785;28;20251;-79
2021/09/27 08:52:17;;;;;;;2.50;1.17;;;18.30;50.30;;;;;;4874664;28;20201;-76
2021/09/27 08:54:40;;;;;;;1.33;0.67;;;18.30;49.90;;;;;;4876555;28;20186;-75
2021/09/27 08:57:10;;;;;;;2.50;1.07;;;18.30;50.30;;;;;;4875846;28;20581;-75
2021/09/27 08:59:48;;;;;;;2.27;0.90;;;18.50;50.10;;;;;;4875726;28;20781;-75
2021/09/27 09:02:22;;;;;;;2.97;1.30;;;18.60;50.50;;;;;;4883084;28;20258;-75
2021/09/27 09:05:04;;;;;;;1.37;0.70;;;18.20;50.30;;;;;;4876068;28;20631;-78
2021/09/27 09:07:27;;;;;;;0.90;0.50;;;18.80;50.70;;;;;;4876049;28;20219;-76
2021/09/27 09:09:55;;;;;;;1.47;0.70;;;18.90;50.80;;;;;;4875281;28;20732;-74
2021/09/27 09:12:24;;;;;;;0.77;0.40;;;18.90;50.80;;;;;;4875013;28;20225;-81
2021/09/27 09:14:52;;;;;;;2.20;1.00;;;19.10;50.90;;;;;;4874373;28;20243;-74
2021/09/27 09:17:21;;;;;;;2.30;1.17;;;19.50;50.90;;;;;;4875497;28;20194;-74
2021/09/27 09:19:44;;;;;;;2.80;1.30;;;;;;;;;;4874158;28;20614;-74
2021/09/27 09:22:16;;;;;;;3.90;1.70;;;18.70;50.90;;;;;;4874564;28;20199;-76
2021/09/27 09:24:42;;;;;;;0.73;0.50;;;19.80;50.80;;;;;;4875707;28;20227;-82
2021/09/27 09:27:08;;;;;;;2.27;1.00;;;19.20;50.70;;;;;;4873952;28;20195;-74
2021/09/27 09:29:35;;;;;;;2.23;1.03;;;19.80;51.50;;;;;;4874520;28;20198;-74
2021/09/27 09:32:07;;;;;;;1.10;0.63;;;19.70;51.40;;;;;;4875244;28;20610;-83
2021/09/27 09:34:35;;;;;;;0.93;0.50;;;19.80;51.40;;;;;;4874377;28;20190;-75
2021/09/27 09:37:01;;;;;;;2.03;0.90;;;19.90;51.70;;;;;;4875433;28;20543;-77
2021/09/27 09:39:35;;;;;;;3.97;2.00;;;20.10;51.30;;;;;;4874669;28;20223;-84
2021/09/27 09:42:00;;;;;;;2.03;0.93;;;20.00;51.80;;;;;;4875590;28;20225;-74
2021/09/27 09:44:26;;;;;;;1.50;0.60;;;20.10;51.30;;;;;;4874852;28;20195;-74
2021/09/27 09:46:59;;;;;;;2.07;1.00;;;20.10;51.90;;;;;;4875659;28;20202;-74
2021/09/27 09:49:21;;;;;;;5.30;2.13;;;;;;;;;;4874837;28;20594;-77
2021/09/27 09:51:47;;;;;;;1.50;0.70;;;20.10;51.90;;;;;;4875555;28;20729;-78
2021/09/27 09:54:17;;;;;;;3.83;1.57;;;20.70;52.60;;;;;;4874911;28;20649;-76
2021/09/27 09:56:43;;;;;;;0.77;0.33;;;22.40;53.90;;;;;;4875376;28;20210;-76
2021/09/27 09:59:17;;;;;;;4.27;1.43;;;24.40;55.20;;;;;;4874238;28;20658;-76
2021/09/27 10:01:43;;;;;;;1.60;0.63;;;;;;;;;;4889799;28;20307;-74
2021/09/27 10:04:09;;;;;;;7.80;1.70;;;28.10;44.60;;;;;;4878786;28;20223;-77
2021/09/27 10:06:38;;;;;;;4.27;1.00;;;29.50;46.10;;;;;;4878077;28;20245;-77
2021/09/27 10:09:05;;;;;;;4.07;0.80;;;30.30;46.90;;;;;;4876828;28;20194;-76
2021/09/27 10:11:34;;;;;;;4.43;1.00;;;30.90;47.40;;;;;;4879194;28;20200;-77
2021/09/27 10:13:58;;;;;;;5.87;1.10;;;32.00;48.10;;;;;;4878854;28;20195;-77
2021/09/27 10:16:39;;;;;;;8.77;1.60;;;33.20;48.70;;;;;;4878321;28;20690;-77
2021/09/27 10:19:16;;;;;;;9.37;1.67;;;34.30;49.40;;;;;;4877185;28;20228;-77
2021/09/27 10:21:39;;;;;;;3.83;0.70;;;34.60;49.70;;;;;;4878955;28;20182;-79
2021/09/27 10:24:16;;;;;;;6.20;1.07;;;35.20;50.00;;;;;;4877523;28;20207;-77
2021/09/27 10:26:41;;;;;;;5.70;1.07;;;36.10;50.40;;;;;;4878690;28;20176;-75
2021/09/27 10:29:10;;;;;;;10.40;1.60;;;36.80;50.70;;;;;;4878056;28;20189;-76
2021/09/27 10:31:36;;;;;;;5.70;1.00;;;37.20;50.90;;;;;;4878815;28;20193;-79
2021/09/27 10:34:03;;;;;;;4.05;0.70;;;37.90;51.20;;;;;;4878210;28;20201;-82
2021/09/27 10:36:33;;;;;;;5.95;0.98;;;38.80;50.60;;;;;;4877244;28;20185;-78
2021/09/27 10:38:59;;;;;;;6.28;1.05;;;38.50;50.50;;;;;;4876401;28;20647;-76
2021/09/27 10:41:25;;;;;;;4.50;0.77;;;37.20;51.30;;;;;;4877635;28;20216;-77
2021/09/27 10:43:51;;;;;;;5.20;0.88;;;39.10;50.80;;;;;;4878584;28;20185;-77
2021/09/27 10:46:18;;;;;;;12.60;1.95;;;39.20;51.80;;;;;;4878354;28;20201;-77
2021/09/27 10:48:44;;;;;;;9.88;1.52;;;39.40;51.30;;;;;;4877480;28;20262;-78
2021/09/27 10:51:09;;;;;;;11.30;1.77;;;40.00;51.20;;;;;;4877079;28;20193;-78
2021/09/27 10:53:45;;;;;;;8.15;1.35;;;40.40;51.40;;;;;;4876942;28;20636;-78
2021/09/27 10:56:15;;;;;;;11.65;1.85;;;41.00;52.60;;;;;;4878058;28;20177;-80
2021/09/27 10:58:43;;;;;;;5.95;0.95;;;41.70;52.70;;;;;;4878261;28;20259;-79
2021/09/27 11:01:08;;;;;;;12.80;1.90;;;42.40;52.10;;;;;;4885608;28;20224;-78
2021/09/27 11:03:38;;;;;;;8.85;1.30;;;42.10;52.10;;;;;;4877263;28;20670;-79
2021/09/27 11:06:19;;;;;;;5.32;0.88;;;42.10;53.00;;;;;;4878156;28;20196;-81
2021/09/27 11:08:53;;;;;;;4.35;0.73;;;42.50;52.20;;;;;;4878416;28;20200;-75
2021/09/27 11:11:23;;;;;;;14.57;2.25;;;42.50;53.20;;;;;;4875087;28;20177;-75
2021/09/27 11:13:48;;;;;;;7.75;1.27;;;42.50;52.30;;;;;;4858740;28;20189;-76
2021/09/27 11:16:17;;;;;;;12.05;1.85;;;43.20;52.50;;;;;;4856939;28;20194;-78
2021/09/27 11:18:52;;;;;;;4.45;0.70;;;43.20;53.40;;;;;;4874841;28;20270;-76
2021/09/27 11:21:22;;;;;;;20.13;3.00;;;43.10;53.50;;;;;;4876171;28;20556;-77
2021/09/27 11:23:45;;;;;;;5.43;0.88;;;42.70;53.30;;;;;;4877876;28;20181;-76
2021/09/27 11:26:30;;;;;;;10.73;1.75;;;43.00;53.40;;;;;;4877488;28;20790;-75
2021/09/27 11:28:55;;;;;;;6.10;1.02;;;42.90;52.50;;;;;;4877476;28;20247;-79
2021/09/27 11:31:33;;;;;;;10.95;1.75;;;42.30;52.30;;;;;;4876065;28;20249;-79
2021/09/27 11:33:58;;;;;;;5.55;0.93;;;42.50;52.40;;;;;;4877013;28;20169;-77
2021/09/27 11:36:33;;;;;;;4.53;0.73;;;42.30;53.20;;;;;;4877651;28;20483;-76
2021/09/27 11:39:25;;;;;;;7.07;1.23;;;41.90;52.10;;;;;;4877814;28;20234;-80
2021/09/27 11:42:24;;;;;;;5.32;0.88;;;41.50;52.00;;;;;;4876698;28;20185;-77
2021/09/27 11:45:10;;;;;;;5.43;0.98;;;41.80;53.00;;;;;;4876798;28;20255;-79
2021/09/27 11:47:56;;;;;;;6.07;1.02;;;42.30;52.30;;;;;;4876165;28;20209;-76
2021/09/27 11:51:01;;;;;;;9.95;1.60;;;42.20;52.30;;;;;;4875018;28;20221;-78
2021/09/27 11:53:37;;;;;;;9.13;1.50;;;42.00;53.10;;;;;;4877518;28;20196;-79
2021/09/27 11:56:05;;;;;;;6.15;1.02;;;42.40;52.40;;;;;;4877150;28;20180;-76
2021/09/27 11:58:33;;;;;;;5.72;0.90;;;43.50;53.10;;;;;;4877461;28;20204;-81
2021/09/27 12:01:00;;;;;;;9.43;1.50;;;44.40;53.90;;;;;;4886191;28;20673;-76
2021/09/27 12:03:27;;;;;;;3.38;0.60;;;44.90;54.10;;;;;;4866175;28;20278;-79
2021/09/27 12:06:00;;;;;;;7.72;1.25;;;46.10;54.30;;;;;;4876487;28;20208;-78
2021/09/27 12:08:26;;;;;;;3.83;0.70;;;46.00;53.60;;;;;;4877201;28;20185;-77
2021/09/27 12:10:53;;;;;;;4.18;0.80;;;45.90;53.60;;;;;;4876686;28;20263;-78
2021/09/27 12:13:20;;;;;;;9.77;1.52;;;46.50;54.10;;;;;;4877277;28;20208;-80
2021/09/27 12:15:46;;;;;;;4.07;0.68;;;47.70;55.10;;;;;;4875693;28;20666;-75
2021/09/27 12:18:41;;;;;;;9.57;1.48;;;48.20;54.40;;;;;;4876330;28;20205;-79
2021/09/27 12:21:08;;;;;;;5.07;0.82;;;48.10;55.30;;;;;;4876987;28;20234;-75
2021/09/27 12:23:36;;;;;;;5.18;0.80;;;48.50;54.50;;;;;;4877390;28;20212;-77
2021/09/27 12:25:58;;;;;;;4.47;0.77;;;48.40;54.50;;;;;;4875905;28;20189;-78
2021/09/27 12:28:30;;;;;;;3.88;0.60;;;48.90;55.50;;;;;;4876764;28;20243;-76
2021/09/27 12:30:57;;;;;;;5.32;0.93;;;49.00;55.60;;;;;;4876841;28;20369;-78
2021/09/27 12:33:25;;;;;;;11.38;1.80;;;48.30;54.50;;;;;;4876758;28;20185;-78
2021/09/27 12:35:51;;;;;;;4.82;0.80;;;49.00;55.60;;;;;;4875544;28;20220;-76
2021/09/27 12:38:20;;;;;;;8.70;1.40;;;48.60;55.40;;;;;;4876575;28;20606;-77
2021/09/27 12:40:45;;;;;;;2.88;0.52;;;48.60;55.00;;;;;;4876937;28;20654;-78
2021/09/27 12:43:14;;;;;;;13.20;1.95;;;48.30;54.50;;;;;;4874699;28;20659;-77
2021/09/27 12:45:44;;;;;;;4.47;0.77;;;48.10;55.30;;;;;;4858684;28;20198;-78
2021/09/27 12:48:10;;;;;;;11.20;1.63;;;47.50;54.20;;;;;;4876500;28;20242;-77
2021/09/27 12:50:34;;;;;;;5.25;0.80;;;46.80;54.80;;;;;;4876356;28;20807;-78
2021/09/27 12:53:04;;;;;;;4.90;0.82;;;46.00;54.60;;;;;;4877041;28;20205;-77
2021/09/27 12:55:44;;;;;;;3.83;0.63;;;45.60;54.40;;;;;;4876658;28;20845;-77
2021/09/27 12:58:14;;;;;;;11.10;1.63;;;44.30;53.90;;;;;;4875981;28;20605;-80
2021/09/27 13:00:42;;;;;;;62.75;9.07;;;45.50;54.40;;;;;;4874519;28;20719;-78
2021/09/27 13:03:08;;;;;;;7.70;1.17;;;46.50;53.80;;;;;;4875631;28;20224;-77
2021/09/27 13:05:48;;;;;;;5.80;0.95;;;45.20;54.30;;;;;;4876336;28;20654;-77
2021/09/27 13:08:24;;;;;;;11.52;1.80;;;45.00;53.70;;;;;;4875980;28;20258;-79
2021/09/27 13:10:49;;;;;;;9.82;1.52;;;44.50;53.80;;;;;;4876172;28;20242;-77
2021/09/27 13:13:15;;;;;;;6.40;0.98;;;43.90;53.40;;;;;;4876329;28;20240;-77
2021/09/27 13:15:42;;;;;;;3.72;0.63;;;42.50;52.40;;;;;;4876416;28;20189;-78